Time;durP1;ratioP1;P1;durP2;ratioP2;P2;SDS_P1;SDS_P2;PMS_P1;PMS_P2;Temp;Humidity;BMP_temperature;BMP_pressure;BME280_temperature;BME280_humidity;BME280_pressure;Samples;Min_cycle;Max_cycle;Signal;HPM_P1;HPM_P2
2021/06/19 00:00:35;;;;;;;12.53;4.13;;;25.40;74.50;;;;;;5008200;28;20449;-55
2021/06/19 00:03:02;;;;;;;8.20;4.70;;;25.20;75.20;;;;;;4993838;28;20493;-55
2021/06/19 00:05:28;;;;;;;6.90;3.67;;;25.20;75.80;;;;;;5015247;28;20505;-55
2021/06/19 00:07:54;;;;;;;5.30;3.53;;;25.10;76.50;;;;;;4999671;28;20498;-55
2021/06/19 00:10:40;;;;;;;10.17;4.20;;;25.10;76.80;;;;;;4991167;28;20446;-54
2021/06/19 00:13:06;;;;;;;10.23;4.13;;;25.00;77.00;;;;;;4990366;28;20809;-55
2021/06/19 00:15:31;;;;;;;8.10;3.37;;;25.10;77.00;;;;;;4991036;28;20560;-55
2021/06/19 00:17:57;;;;;;;10.47;4.10;;;25.20;77.30;;;;;;4994438;28;21012;-53
2021/06/19 00:20:27;;;;;;;6.83;3.80;;;25.20;77.50;;;;;;4991085;28;20201;-55
2021/06/19 00:22:53;;;;;;;14.03;5.13;;;25.00;78.50;;;;;;4991505;28;20191;-55
2021/06/19 00:25:21;;;;;;;11.17;5.00;;;24.90;80.60;;;;;;4990868;28;20462;-54
2021/06/19 00:27:47;;;;;;;12.77;4.73;;;24.70;83.10;;;;;;4993942;28;20462;-54
2021/06/19 00:30:14;;;;;;;10.17;5.53;;;24.70;86.10;;;;;;4989525;28;20441;-56
2021/06/19 00:32:40;;;;;;;9.27;5.20;;;24.70;86.70;;;;;;4990845;28;20203;-56
2021/06/19 00:35:06;;;;;;;11.07;5.40;;;24.70;87.10;;;;;;4990691;28;20439;-59
2021/06/19 00:37:34;;;;;;;12.33;5.70;;;24.70;86.80;;;;;;4992401;28;21074;-59
2021/06/19 00:40:00;;;;;;;7.67;5.93;;;24.60;87.20;;;;;;4989888;28;20463;-59
2021/06/19 00:42:26;;;;;;;9.90;4.90;;;24.50;87.40;;;;;;4991681;28;20453;-59
2021/06/19 00:44:54;;;;;;;10.40;5.30;;;24.50;88.20;;;;;;4989477;28;20874;-59
2021/06/19 00:47:20;;;;;;;10.87;4.33;;;24.40;90.20;;;;;;4990901;28;20569;-59
2021/06/19 00:49:46;;;;;;;8.33;5.03;;;24.40;90.30;;;;;;4990259;28;20435;-59
2021/06/19 00:52:11;;;;;;;9.47;4.40;;;24.30;90.50;;;;;;4990669;28;20219;-59
2021/06/19 00:54:38;;;;;;;9.10;4.67;;;24.30;90.50;;;;;;4992198;28;20187;-59
2021/06/19 00:57:06;;;;;;;6.97;4.20;;;24.30;90.70;;;;;;4994165;28;20211;-59
2021/06/19 00:59:32;;;;;;;6.43;3.93;;;24.20;91.10;;;;;;4993531;28;20930;-59
2021/06/19 01:01:57;;;;;;;4.97;3.70;;;24.10;91.70;;;;;;4985946;28;20446;-59
2021/06/19 01:04:23;;;;;;;6.17;3.93;;;23.80;92.70;;;;;;4990575;28;20215;-59
2021/06/19 01:06:48;;;;;;;7.37;4.10;;;23.70;93.30;;;;;;4990210;28;20219;-59
2021/06/19 01:09:14;;;;;;;6.07;4.30;;;23.70;93.60;;;;;;4999624;28;20179;-59
2021/06/19 01:11:40;;;;;;;5.37;4.00;;;23.60;94.20;;;;;;4995043;28;20178;-59
2021/06/19 01:14:07;;;;;;;7.27;4.20;;;23.60;95.00;;;;;;4994883;28;20560;-59
2021/06/19 01:16:34;;;;;;;9.80;4.70;;;23.40;95.50;;;;;;4995774;28;20349;-59
2021/06/19 01:19:00;;;;;;;6.03;4.67;;;23.40;95.20;;;;;;4992564;28;20765;-59
2021/06/19 01:21:29;;;;;;;8.80;4.60;;;23.50;95.00;;;;;;4999123;28;20516;-59
2021/06/19 01:23:55;;;;;;;9.10;5.40;;;23.50;94.60;;;;;;4990237;28;20434;-59
2021/06/19 01:26:24;;;;;;;9.57;4.87;;;23.40;95.00;;;;;;4992837;28;20983;-59
2021/06/19 01:28:51;;;;;;;7.80;4.90;;;23.40;95.00;;;;;;4994682;28;20438;-59
2021/06/19 01:31:18;;;;;;;6.00;4.97;;;23.40;95.70;;;;;;4997140;28;20792;-59
2021/06/19 01:33:45;;;;;;;9.53;4.50;;;23.40;96.40;;;;;;4994263;28;20451;-59
2021/06/19 01:36:12;;;;;;;5.83;4.50;;;23.30;97.30;;;;;;4997366;28;20437;-59
2021/06/19 01:38:42;;;;;;;7.17;4.60;;;23.30;97.30;;;;;;4999746;28;20967;-59
2021/06/19 01:41:20;;;;;;;5.33;4.43;;;23.30;97.00;;;;;;4999516;28;20927;-59
2021/06/19 01:43:48;;;;;;;10.10;5.30;;;23.30;96.60;;;;;;5003370;28;20442;-59
2021/06/19 01:46:16;;;;;;;10.97;5.17;;;23.30;97.00;;;;;;5002861;28;20458;-59
2021/06/19 01:48:42;;;;;;;11.23;5.90;;;23.20;97.20;;;;;;4990882;28;20454;-59
2021/06/19 01:51:11;;;;;;;8.43;4.90;;;23.20;97.50;;;;;;5002007;28;20993;-59
2021/06/19 01:53:41;;;;;;;8.23;5.10;;;23.30;97.80;;;;;;4995037;28;20963;-59
2021/06/19 01:56:08;;;;;;;7.07;5.50;;;23.20;98.40;;;;;;4991303;28;20777;-59
2021/06/19 01:58:34;;;;;;;10.20;5.57;;;23.30;98.70;;;;;;4998346;28;20489;-59
2021/06/19 02:01:00;;;;;;;7.33;5.20;;;23.30;99.00;;;;;;4993240;28;20431;-59
2021/06/19 02:03:26;;;;;;;8.20;5.00;;;23.20;99.40;;;;;;5000093;28;20441;-59
2021/06/19 02:05:52;;;;;;;11.37;5.60;;;23.10;99.70;;;;;;4990728;28;20466;-60
2021/06/19 02:08:19;;;;;;;10.37;5.70;;;23.10;99.90;;;;;;4997706;28;20557;-59
2021/06/19 02:10:45;;;;;;;10.30;6.40;;;23.20;99.90;;;;;;4987627;28;20179;-59
2021/06/19 02:13:12;;;;;;;11.03;5.20;;;23.10;99.90;;;;;;4989201;28;20450;-59
2021/06/19 02:15:40;;;;;;;10.40;6.47;;;22.90;99.90;;;;;;4989303;28;20238;-59
2021/06/19 02:18:06;;;;;;;10.90;6.30;;;22.80;99.90;;;;;;4994526;28;20243;-59
2021/06/19 02:20:32;;;;;;;10.97;6.17;;;22.80;99.90;;;;;;4992410;28;20442;-59
2021/06/19 02:22:58;;;;;;;8.53;5.87;;;22.70;99.90;;;;;;4987025;28;20444;-59
2021/06/19 02:25:26;;;;;;;10.00;6.90;;;22.70;99.90;;;;;;4990349;28;20473;-59
2021/06/19 02:27:57;;;;;;;10.15;6.28;;;22.60;99.90;;;;;;4995708;28;20198;-59
2021/06/19 02:30:26;;;;;;;7.80;6.07;;;22.40;99.90;;;;;;4990974;28;20258;-59
2021/06/19 02:32:53;;;;;;;12.38;6.50;;;22.40;99.90;;;;;;4992866;28;20455;-58
2021/06/19 02:35:20;;;;;;;11.00;6.87;;;22.40;99.90;;;;;;4995473;28;20179;-59
2021/06/19 02:37:46;;;;;;;11.65;7.10;;;22.50;99.90;;;;;;4990412;28;20749;-59
2021/06/19 02:40:12;;;;;;;10.40;6.63;;;22.40;99.90;;;;;;4991909;28;20636;-59
2021/06/19 02:42:38;;;;;;;10.18;6.95;;;22.40;99.90;;;;;;4998071;28;20435;-59
2021/06/19 02:45:10;;;;;;;8.90;6.80;;;22.20;99.90;;;;;;5004637;28;20194;-59
2021/06/19 02:47:38;;;;;;;8.80;7.00;;;22.20;99.90;;;;;;4990968;28;20207;-59
2021/06/19 02:50:05;;;;;;;8.65;6.63;;;22.10;99.90;;;;;;5006657;28;20206;-60
2021/06/19 02:52:31;;;;;;;8.65;6.93;;;22.10;99.90;;;;;;5002669;28;20676;-59
2021/06/19 02:54:56;;;;;;;8.13;7.03;;;22.00;99.90;;;;;;4993143;28;20184;-59
2021/06/19 02:57:22;;;;;;;8.13;6.77;;;22.00;99.90;;;;;;5001820;28;20225;-59
2021/06/19 02:59:47;;;;;;;8.63;6.80;;;22.00;99.90;;;;;;5007979;28;20711;-59
2021/06/19 03:02:13;;;;;;;8.03;7.23;;;21.90;99.90;;;;;;4996696;28;20184;-59
2021/06/19 03:04:38;;;;;;;11.33;6.90;;;21.90;99.90;;;;;;5001113;28;20191;-59
2021/06/19 03:07:04;;;;;;;10.77;6.80;;;21.90;99.90;;;;;;5001041;28;20206;-59
2021/06/19 03:09:30;;;;;;;13.47;6.97;;;21.90;99.90;;;;;;4996033;28;20329;-59
2021/06/19 03:11:55;;;;;;;9.07;7.67;;;21.90;99.90;;;;;;4997166;28;20179;-59
2021/06/19 03:14:21;;;;;;;14.20;7.37;;;22.00;99.90;;;;;;5000757;28;20262;-59
2021/06/19 03:16:46;;;;;;;10.90;7.37;;;22.00;99.90;;;;;;4993297;28;20207;-59
2021/06/19 03:19:12;;;;;;;10.90;7.70;;;22.00;99.90;;;;;;5006672;28;20252;-59
2021/06/19 03:21:38;;;;;;;10.50;7.67;;;21.90;99.90;;;;;;4992756;28;20198;-59
2021/06/19 03:24:04;;;;;;;10.77;7.28;;;22.00;99.90;;;;;;5002438;28;20662;-59
2021/06/19 03:26:30;;;;;;;9.93;7.35;;;22.10;99.90;;;;;;5000375;28;20217;-60
2021/06/19 03:28:56;;;;;;;7.60;6.70;;;22.10;99.90;;;;;;4994500;28;20184;-60
2021/06/19 03:31:21;;;;;;;12.47;7.07;;;22.20;99.90;;;;;;4994580;28;20183;-59
2021/06/19 03:33:47;;;;;;;7.80;6.70;;;22.10;99.90;;;;;;4997793;28;20195;-59
2021/06/19 03:36:13;;;;;;;9.60;6.43;;;22.10;99.90;;;;;;4998970;28;20199;-59
2021/06/19 03:38:38;;;;;;;9.10;6.60;;;22.10;99.90;;;;;;4994106;28;20203;-59
2021/06/19 03:41:04;;;;;;;9.67;7.87;;;22.10;99.90;;;;;;4991456;28;20211;-59
2021/06/19 03:43:29;;;;;;;8.20;7.30;;;22.10;99.90;;;;;;5001334;28;20191;-59
2021/06/19 03:45:55;;;;;;;9.93;8.93;;;22.00;99.90;;;;;;4999033;28;20288;-59
2021/06/19 03:48:24;;;;;;;10.63;6.93;;;22.00;99.90;;;;;;4997362;28;20215;-59
2021/06/19 03:50:49;;;;;;;13.18;7.10;;;22.00;99.90;;;;;;4999507;28;20181;-59
2021/06/19 03:53:15;;;;;;;12.83;7.63;;;21.80;99.90;;;;;;4994928;28;20181;-60
2021/06/19 03:55:40;;;;;;;8.53;7.10;;;21.90;99.90;;;;;;4999520;28;20194;-59
2021/06/19 03:58:06;;;;;;;10.80;7.07;;;21.80;99.90;;;;;;4998528;28;20203;-60
2021/06/19 04:00:32;;;;;;;9.47;7.87;;;21.80;99.90;;;;;;4992934;28;20195;-60
2021/06/19 04:02:59;;;;;;;9.17;7.63;;;21.70;99.90;;;;;;5002005;28;20940;-59
2021/06/19 04:05:25;;;;;;;10.65;7.68;;;21.70;99.90;;;;;;4991220;28;20282;-60
2021/06/19 04:07:50;;;;;;;9.33;7.70;;;21.80;99.90;;;;;;4995448;28;20649;-59
2021/06/19 04:10:17;;;;;;;13.20;8.37;;;21.90;99.90;;;;;;4996735;28;20179;-60
2021/06/19 04:12:43;;;;;;;11.38;7.70;;;21.90;99.90;;;;;;5001186;28;20179;-60
2021/06/19 04:15:11;;;;;;;12.27;7.27;;;21.90;99.90;;;;;;4997378;28;20191;-59
2021/06/19 04:17:37;;;;;;;7.68;6.88;;;21.90;99.90;;;;;;4991648;28;20454;-59
2021/06/19 04:20:07;;;;;;;10.93;7.80;;;21.80;99.90;;;;;;4995547;28;20194;-59
2021/06/19 04:22:33;;;;;;;11.13;7.78;;;21.80;99.90;;;;;;4991583;28;20184;-60
2021/06/19 04:24:59;;;;;;;12.23;8.23;;;21.90;99.90;;;;;;4994470;28;20548;-59
2021/06/19 04:27:25;;;;;;;13.00;8.10;;;21.90;99.90;;;;;;5002045;28;20219;-60
2021/06/19 04:29:50;;;;;;;8.50;7.70;;;22.00;99.90;;;;;;4998394;28;20559;-59
2021/06/19 04:32:18;;;;;;;11.50;8.13;;;22.00;99.90;;;;;;4999757;28;20214;-60
2021/06/19 04:34:49;;;;;;;12.25;8.45;;;21.90;99.90;;;;;;4994518;28;20192;-51
2021/06/19 04:37:15;;;;;;;9.63;7.60;;;22.00;99.90;;;;;;4999336;28;20236;-51
2021/06/19 04:39:52;;;;;;;10.87;8.07;;;22.10;99.90;;;;;;4992623;28;20274;-50
2021/06/19 04:42:19;;;;;;;12.75;8.30;;;22.00;99.90;;;;;;4990018;28;20434;-51
2021/06/19 04:47:19;;;;;;;13.27;8.70;;;22.10;99.90;;;;;;4986086;28;20210;-50
2021/06/19 04:49:45;;;;;;;12.10;8.27;;;22.10;99.90;;;;;;4983945;28;20229;-51
2021/06/19 04:52:10;;;;;;;10.70;7.97;;;22.10;99.90;;;;;;4984547;28;20184;-50
2021/06/19 04:54:39;;;;;;;13.37;7.87;;;22.00;99.90;;;;;;4986416;28;20190;-50
2021/06/19 04:57:06;;;;;;;10.27;8.70;;;22.10;99.90;;;;;;4985248;28;20261;-50
2021/06/19 04:59:32;;;;;;;10.23;8.00;;;22.10;99.90;;;;;;4985321;28;20193;-50
2021/06/19 05:01:59;;;;;;;13.88;8.98;;;22.10;99.90;;;;;;4999162;28;20179;-50
2021/06/19 05:04:25;;;;;;;12.93;8.45;;;22.20;99.90;;;;;;4985998;28;20195;-50
2021/06/19 05:06:50;;;;;;;9.20;8.07;;;22.30;99.90;;;;;;4984123;28;20228;-51
2021/06/19 05:09:16;;;;;;;12.87;8.53;;;22.40;99.90;;;;;;4998903;28;20175;-50
2021/06/19 05:11:48;;;;;;;19.60;9.30;;;22.50;99.90;;;;;;4987193;28;20692;-51
2021/06/19 05:14:13;;;;;;;11.80;8.70;;;22.50;99.90;;;;;;4983545;28;20215;-51
2021/06/19 05:16:39;;;;;;;11.10;8.50;;;22.40;99.90;;;;;;4980878;28;20238;-51
2021/06/19 05:19:05;;;;;;;10.03;7.50;;;22.40;99.90;;;;;;4983600;28;20192;-51
2021/06/19 05:21:31;;;;;;;10.60;9.07;;;22.40;99.90;;;;;;4985832;28;20187;-50
2021/06/19 05:23:56;;;;;;;11.20;8.70;;;22.50;99.90;;;;;;4984204;28;20204;-52
2021/06/19 05:26:22;;;;;;;15.40;8.40;;;22.20;99.90;;;;;;4983847;28;20497;-52
2021/06/19 05:28:47;;;;;;;12.70;8.43;;;22.50;99.90;;;;;;4983680;28;20188;-49
2021/06/19 05:31:13;;;;;;;10.93;8.17;;;22.60;99.90;;;;;;4983831;28;20195;-59
2021/06/19 05:33:39;;;;;;;13.30;8.47;;;22.70;99.90;;;;;;4986979;28;20206;-57
2021/06/19 05:36:05;;;;;;;12.70;8.73;;;22.80;99.90;;;;;;4986347;28;20512;-59
2021/06/19 05:38:31;;;;;;;11.37;8.67;;;23.10;99.90;;;;;;4981061;28;20266;-59
2021/06/19 05:40:56;;;;;;;15.37;8.83;;;23.30;99.90;;;;;;4983382;28;20462;-58
2021/06/19 05:43:22;;;;;;;10.80;8.53;;;23.50;99.90;;;;;;4987944;28;20246;-58
2021/06/19 05:45:48;;;;;;;11.13;8.87;;;23.60;99.90;;;;;;4998809;28;20246;-59
2021/06/19 05:48:13;;;;;;;15.23;9.57;;;23.80;99.90;;;;;;4986850;28;20211;-58
2021/06/19 05:50:39;;;;;;;10.97;8.73;;;23.90;99.90;;;;;;4991522;28;20215;-59
2021/06/19 05:53:05;;;;;;;9.83;8.30;;;24.00;99.90;;;;;;4997882;28;20191;-57
2021/06/19 05:55:31;;;;;;;9.07;8.13;;;24.20;99.90;;;;;;4991109;28;20191;-58
2021/06/19 05:57:56;;;;;;;9.37;8.43;;;24.30;99.90;;;;;;5000563;28;20668;-60
2021/06/19 06:00:22;;;;;;;10.40;8.30;;;24.50;99.90;;;;;;4988474;28;20470;-60
2021/06/19 06:02:47;;;;;;;15.33;9.00;;;24.70;99.90;;;;;;4992279;28;20254;-59
2021/06/19 06:05:13;;;;;;;13.23;9.90;;;24.80;99.90;;;;;;4993706;28;20199;-58
2021/06/19 06:07:39;;;;;;;12.70;8.57;;;24.90;99.90;;;;;;4996283;28;20215;-58
2021/06/19 06:10:06;;;;;;;9.47;7.50;;;25.10;99.90;;;;;;5000017;28;20866;-58
2021/06/19 06:12:32;;;;;;;16.13;9.10;;;25.10;99.90;;;;;;4996799;28;20435;-57
2021/06/19 06:14:58;;;;;;;12.60;8.80;;;25.20;99.90;;;;;;4993049;28;20446;-59
2021/06/19 06:17:25;;;;;;;9.53;8.30;;;25.40;99.90;;;;;;4990633;28;20477;-57
2021/06/19 06:19:51;;;;;;;8.70;7.80;;;25.40;99.90;;;;;;5000213;28;20645;-57
2021/06/19 06:22:16;;;;;;;11.17;8.00;;;25.50;99.90;;;;;;4996375;28;20457;-59
2021/06/19 06:24:42;;;;;;;8.97;7.70;;;25.70;99.90;;;;;;4999592;28;20251;-57
2021/06/19 06:27:08;;;;;;;9.23;8.20;;;25.70;99.40;;;;;;4998322;28;20222;-57
2021/06/19 06:29:33;;;;;;;9.43;8.47;;;25.90;99.30;;;;;;4997625;28;20188;-58
2021/06/19 06:31:59;;;;;;;10.27;7.60;;;26.10;98.90;;;;;;4999516;28;20193;-58
2021/06/19 06:34:25;;;;;;;9.73;8.73;;;26.20;98.60;;;;;;5004660;28;20205;-59
2021/06/19 06:36:51;;;;;;;8.60;7.80;;;26.30;98.00;;;;;;4992845;28;20214;-59
2021/06/19 06:39:17;;;;;;;9.83;8.63;;;26.40;97.50;;;;;;4992381;28;20190;-59
2021/06/19 06:41:43;;;;;;;8.60;7.80;;;26.50;97.30;;;;;;4992366;28;20451;-59
2021/06/19 06:44:08;;;;;;;8.60;7.70;;;26.50;96.90;;;;;;4992568;28;20644;-58
2021/06/19 06:46:34;;;;;;;8.50;7.60;;;26.70;96.60;;;;;;4990886;28;20606;-59
2021/06/19 06:49:00;;;;;;;8.40;7.60;;;26.90;96.00;;;;;;5000079;28;20190;-59
2021/06/19 06:51:25;;;;;;;10.33;8.20;;;27.10;95.60;;;;;;4989985;28;20461;-59
2021/06/19 06:53:51;;;;;;;9.87;8.37;;;27.30;95.10;;;;;;4991629;28;20238;-59
2021/06/19 06:56:17;;;;;;;8.43;7.63;;;27.50;94.60;;;;;;4990912;28;20219;-59
2021/06/19 06:58:43;;;;;;;7.77;6.93;;;27.70;94.40;;;;;;4991031;28;20568;-58
2021/06/19 07:01:08;;;;;;;7.80;7.00;;;28.20;93.20;;;;;;4991221;28;20198;-57
2021/06/19 07:03:34;;;;;;;12.50;7.10;;;28.60;92.00;;;;;;4992224;28;20635;-58
2021/06/19 07:06:00;;;;;;;8.60;6.40;;;29.20;89.60;;;;;;4997321;28;20686;-60
2021/06/19 07:08:26;;;;;;;6.83;6.10;;;31.40;84.20;;;;;;4991030;28;20478;-58
2021/06/19 07:10:51;;;;;;;6.80;6.20;;;33.30;73.30;;;;;;4992362;28;20532;-59
2021/06/19 07:13:17;;;;;;;8.43;5.20;;;34.50;68.10;;;;;;4992258;28;20190;-58
2021/06/19 07:15:44;;;;;;;6.67;6.03;;;35.70;62.30;;;;;;4997726;28;20187;-58
2021/06/19 07:18:11;;;;;;;7.53;5.40;;;35.90;59.30;;;;;;4991285;28;20631;-59
2021/06/19 07:20:36;;;;;;;7.00;6.10;;;35.50;59.50;;;;;;4985470;28;20470;-59
2021/06/19 07:23:02;;;;;;;7.30;5.70;;;36.90;57.70;;;;;;4985658;28;20967;-60
2021/06/19 07:25:28;;;;;;;9.27;6.00;;;39.30;53.20;;;;;;4992986;28;20353;-60
2021/06/19 07:27:54;;;;;;;7.77;5.03;;;39.90;50.50;;;;;;4988830;28;20587;-59
2021/06/19 07:30:21;;;;;;;5.73;5.23;;;41.10;47.40;;;;;;5007435;28;20637;-59
2021/06/19 07:32:47;;;;;;;5.83;5.33;;;42.70;43.80;;;;;;4994730;28;20954;-59
2021/06/19 07:35:13;;;;;;;5.90;5.40;;;43.40;42.10;;;;;;4989425;28;20477;-60
2021/06/19 07:37:38;;;;;;;7.03;6.33;;;44.30;39.80;;;;;;4993881;28;20676;-59
2021/06/19 07:40:06;;;;;;;6.63;5.90;;;44.90;37.60;;;;;;4990439;28;20470;-60
2021/06/19 07:42:32;;;;;;;6.03;5.33;;;43.20;38.80;;;;;;4996057;28;20186;-59
2021/06/19 07:44:58;;;;;;;7.27;5.80;;;42.00;40.30;;;;;;4999759;28;20449;-59
2021/06/19 07:47:23;;;;;;;9.43;7.07;;;42.10;40.00;;;;;;4989466;28;20471;-58
2021/06/19 07:49:52;;;;;;;6.30;5.70;;;41.80;40.40;;;;;;4991193;28;20183;-60
2021/06/19 07:52:18;;;;;;;8.30;5.73;;;41.00;41.30;;;;;;5006094;28;20644;-59
2021/06/19 07:54:43;;;;;;;6.60;5.90;;;42.10;41.10;;;;;;4998465;28;20444;-60
2021/06/19 07:57:09;;;;;;;7.00;6.10;;;43.00;38.80;;;;;;5001072;28;20227;-60
2021/06/19 07:59:35;;;;;;;9.17;6.40;;;43.80;38.10;;;;;;4990531;28;20207;-58
2021/06/19 08:02:02;;;;;;;8.80;6.30;;;43.20;37.70;;;;;;4988546;28;20568;-59
2021/06/19 08:04:28;;;;;;;7.10;6.10;;;43.00;38.70;;;;;;4990304;28;20446;-59
2021/06/19 08:06:53;;;;;;;7.70;5.93;;;43.50;37.60;;;;;;4993804;28;20474;-59
2021/06/19 08:09:19;;;;;;;6.73;6.10;;;44.10;36.90;;;;;;4999392;28;20269;-60
2021/06/19 08:11:45;;;;;;;7.07;6.47;;;44.00;36.70;;;;;;4999161;28;20581;-59
2021/06/19 08:14:10;;;;;;;8.10;6.60;;;44.20;36.50;;;;;;4992398;28;20231;-58
2021/06/19 08:16:36;;;;;;;8.73;6.67;;;44.60;36.50;;;;;;4989247;28;20687;-60
2021/06/19 08:19:02;;;;;;;7.37;6.67;;;42.80;37.50;;;;;;4991533;28;20792;-59
2021/06/19 08:21:27;;;;;;;7.50;6.70;;;43.40;36.80;;;;;;4993177;28;20611;-60
2021/06/19 08:23:54;;;;;;;7.73;6.80;;;42.40;36.80;;;;;;4993686;28;20645;-59
2021/06/19 08:26:20;;;;;;;8.07;6.77;;;41.90;38.30;;;;;;4989951;28;20740;-60
2021/06/19 08:28:47;;;;;;;9.03;8.10;;;41.80;39.10;;;;;;4984410;28;20450;-59
2021/06/19 08:31:12;;;;;;;7.10;6.40;;;43.40;37.70;;;;;;4989085;28;20657;-61
2021/06/19 08:33:38;;;;;;;7.37;6.67;;;43.30;37.60;;;;;;4988885;28;20450;-60
2021/06/19 08:36:04;;;;;;;11.43;6.90;;;43.00;38.40;;;;;;4992831;28;20206;-59
2021/06/19 08:38:29;;;;;;;9.60;8.90;;;41.30;39.70;;;;;;4989884;28;20270;-59
2021/06/19 08:40:55;;;;;;;10.63;7.47;;;40.00;41.90;;;;;;4997306;28;20442;-58
2021/06/19 08:43:21;;;;;;;9.20;7.37;;;40.00;42.40;;;;;;4992741;28;20183;-59
2021/06/19 08:45:50;;;;;;;8.80;7.87;;;39.80;42.30;;;;;;4992968;28;20672;-59
2021/06/19 08:48:18;;;;;;;7.73;7.00;;;39.30;43.80;;;;;;4982877;28;20470;-59
2021/06/19 08:50:45;;;;;;;8.10;7.40;;;39.80;43.10;;;;;;4994717;28;20469;-58
2021/06/19 08:53:12;;;;;;;9.00;8.10;;;40.10;43.30;;;;;;5006643;28;21032;-59
2021/06/19 08:55:38;;;;;;;8.87;8.07;;;41.20;41.60;;;;;;4996209;28;20830;-60
2021/06/19 08:58:04;;;;;;;8.03;7.23;;;41.10;41.20;;;;;;4991606;28;20466;-60
2021/06/19 09:00:30;;;;;;;8.83;8.03;;;39.80;42.00;;;;;;4988162;28;20474;-59
2021/06/19 09:02:56;;;;;;;7.80;7.03;;;39.20;43.80;;;;;;4989228;28;20482;-59
2021/06/19 09:05:28;;;;;;;8.77;8.00;;;40.40;42.50;;;;;;4991775;28;20191;-59
2021/06/19 09:07:56;;;;;;;30.07;16.63;;;41.40;41.70;;;;;;4988236;28;20685;-60
2021/06/19 09:10:31;;;;;;;37.73;18.40;;;41.70;42.40;;;;;;4986717;28;20586;-61
2021/06/19 09:13:10;;;;;;;19.53;11.47;;;42.90;40.30;;;;;;4997470;28;20434;-59
2021/06/19 09:15:36;;;;;;;9.30;8.47;;;43.10;39.70;;;;;;4994032;28;20453;-59
2021/06/19 09:18:10;;;;;;;10.10;7.50;;;43.40;39.20;;;;;;4989208;28;20470;-59
2021/06/19 09:20:54;;;;;;;8.33;7.50;;;43.30;38.60;;;;;;5000099;28;20229;-59
2021/06/19 09:23:36;;;;;;;7.87;7.17;;;43.00;38.30;;;;;;4984988;28;20872;-60
2021/06/19 09:26:12;;;;;;;8.27;7.57;;;43.00;38.60;;;;;;4989173;28;20469;-59
2021/06/19 09:28:59;;;;;;;9.60;7.43;;;42.70;39.50;;;;;;4991885;28;20769;-59
2021/06/19 09:31:51;;;;;;;10.03;8.07;;;43.20;39.30;;;;;;4989450;28;20442;-59
2021/06/19 09:34:19;;;;;;;9.03;8.23;;;43.00;39.30;;;;;;4999858;28;20457;-59
2021/06/19 09:36:51;;;;;;;9.37;8.50;;;43.20;39.00;;;;;;4996780;28;20898;-59
2021/06/19 09:39:20;;;;;;;8.87;7.97;;;42.70;39.40;;;;;;4989342;28;20757;-59
2021/06/19 09:41:54;;;;;;;9.23;7.97;;;42.40;40.20;;;;;;4996180;28;20438;-59
2021/06/19 09:44:38;;;;;;;11.13;8.47;;;42.00;40.50;;;;;;4980875;28;20443;-59
2021/06/19 09:47:04;;;;;;;8.50;7.80;;;41.90;40.80;;;;;;4991436;28;20859;-59
2021/06/19 09:49:33;;;;;;;9.57;8.60;;;41.90;40.90;;;;;;4996309;28;20451;-60
2021/06/19 09:51:59;;;;;;;8.83;7.93;;;41.90;41.00;;;;;;4988108;28;20439;-58
2021/06/19 09:54:25;;;;;;;8.30;7.60;;;41.20;40.90;;;;;;4986288;28;20944;-59
2021/06/19 09:56:52;;;;;;;10.87;7.27;;;41.40;41.50;;;;;;4996519;28;20604;-58
2021/06/19 09:59:32;;;;;;;10.97;8.57;;;40.30;41.60;;;;;;4989157;28;20256;-58
2021/06/19 10:02:00;;;;;;;8.97;7.17;;;40.30;43.20;;;;;;4992481;28;20446;-59
2021/06/19 10:04:28;;;;;;;10.00;7.87;;;41.10;41.40;;;;;;4996873;28;20443;-58
2021/06/19 10:06:55;;;;;;;10.17;9.20;;;41.20;40.80;;;;;;4987126;28;20555;-57
2021/06/19 10:09:21;;;;;;;9.03;7.53;;;41.60;40.20;;;;;;4989698;28;20552;-59
2021/06/19 10:11:49;;;;;;;8.47;7.67;;;40.90;41.40;;;;;;4998308;28;20446;-58
2021/06/19 10:14:19;;;;;;;8.10;6.87;;;41.70;39.60;;;;;;4991193;28;20451;-57
2021/06/19 10:16:50;;;;;;;7.90;7.10;;;42.00;38.60;;;;;;4988907;28;20486;-58
2021/06/19 10:19:20;;;;;;;8.43;7.63;;;42.10;38.70;;;;;;4985662;28;20452;-59
2021/06/19 10:21:46;;;;;;;8.10;7.30;;;41.40;39.50;;;;;;4988681;28;20497;-58
2021/06/19 10:24:13;;;;;;;9.50;8.43;;;41.50;39.70;;;;;;4996069;28;20442;-57
2021/06/19 10:26:40;;;;;;;8.13;7.33;;;41.40;39.40;;;;;;4994894;28;20862;-57
2021/06/19 10:29:06;;;;;;;8.13;7.17;;;41.00;39.60;;;;;;4993331;28;20580;-57
2021/06/19 10:31:50;;;;;;;11.40;7.17;;;41.70;38.70;;;;;;4987455;28;20438;-57
2021/06/19 10:34:32;;;;;;;8.30;7.50;;;41.20;38.40;;;;;;4986448;28;20546;-58
2021/06/19 10:36:57;;;;;;;8.67;7.77;;;41.60;37.80;;;;;;4985465;28;20470;-58
2021/06/19 10:39:33;;;;;;;9.13;6.97;;;41.60;38.50;;;;;;4985999;28;20947;-59
2021/06/19 10:41:59;;;;;;;11.83;7.80;;;41.60;38.10;;;;;;4984973;28;20680;-58
2021/06/19 10:44:52;;;;;;;7.63;6.90;;;41.20;38.60;;;;;;4991929;28;20457;-57
2021/06/19 10:47:20;;;;;;;7.87;6.93;;;40.70;39.80;;;;;;5002508;28;20480;-58
2021/06/19 10:49:46;;;;;;;8.20;7.33;;;40.40;40.60;;;;;;4995819;28;20481;-59
2021/06/19 10:52:25;;;;;;;8.80;7.03;;;40.30;40.10;;;;;;4989658;28;20486;-58
2021/06/19 10:55:09;;;;;;;7.90;7.10;;;40.20;40.40;;;;;;4999986;28;20452;-58
2021/06/19 10:57:45;;;;;;;21.00;7.60;;;40.10;39.30;;;;;;4985092;28;20979;-58
2021/06/19 11:00:23;;;;;;;7.73;6.60;;;40.40;39.10;;;;;;4996013;28;21109;-58
2021/06/19 11:02:51;;;;;;;8.23;7.43;;;40.50;39.30;;;;;;4994247;28;20433;-58
2021/06/19 11:05:42;;;;;;;8.50;7.27;;;40.10;40.00;;;;;;4985881;28;20469;-58
2021/06/19 11:08:07;;;;;;;10.37;7.20;;;40.10;40.00;;;;;;4978959;28;20501;-60
2021/06/19 11:10:49;;;;;;;8.90;7.27;;;40.20;40.40;;;;;;4984105;28;20465;-58
2021/06/19 11:13:30;;;;;;;10.53;7.73;;;39.70;41.00;;;;;;4984991;28;20646;-58
2021/06/19 11:16:01;;;;;;;9.47;6.70;;;39.90;41.00;;;;;;4988573;28;20449;-58
2021/06/19 11:18:49;;;;;;;7.90;7.17;;;40.10;40.20;;;;;;4986472;28;20462;-58
2021/06/19 11:21:15;;;;;;;10.83;7.80;;;40.10;40.80;;;;;;4987721;28;20468;-59
2021/06/19 11:23:59;;;;;;;9.93;6.93;;;39.60;40.20;;;;;;4987860;28;20442;-57
2021/06/19 11:26:53;;;;;;;7.90;7.20;;;39.50;41.20;;;;;;4988616;28;20553;-57
2021/06/19 11:29:41;;;;;;;10.57;7.40;;;39.40;41.40;;;;;;4986679;28;21030;-57
2021/06/19 11:32:32;;;;;;;7.90;7.10;;;39.20;41.80;;;;;;4983917;28;20613;-57
2021/06/19 11:35:18;;;;;;;7.87;6.80;;;38.80;41.40;;;;;;4986897;28;20442;-57
2021/06/19 11:37:56;;;;;;;9.57;7.43;;;38.60;42.40;;;;;;4990216;28;20540;-58
2021/06/19 11:40:28;;;;;;;7.47;6.60;;;38.60;41.80;;;;;;4984493;28;20434;-57
2021/06/19 11:42:54;;;;;;;8.30;6.60;;;38.30;41.50;;;;;;4988944;28;20944;-57
2021/06/19 11:45:20;;;;;;;13.03;6.27;;;38.00;41.10;;;;;;4985086;28;20457;-57
2021/06/19 11:47:47;;;;;;;8.30;6.13;;;37.40;41.70;;;;;;4990390;28;20222;-57
2021/06/19 11:50:14;;;;;;;12.40;6.40;;;37.00;41.70;;;;;;4989455;28;20645;-57
2021/06/19 11:52:39;;;;;;;10.13;7.27;;;37.20;42.20;;;;;;4994637;28;20528;-57
2021/06/19 11:55:05;;;;;;;8.00;7.20;;;36.70;44.30;;;;;;4989156;28;20569;-58
2021/06/19 11:57:31;;;;;;;10.90;8.10;;;36.10;45.30;;;;;;4995532;28;20662;-57
2021/06/19 12:00:12;;;;;;;7.23;6.30;;;35.50;46.50;;;;;;5000303;28;20450;-57
2021/06/19 12:02:39;;;;;;;10.00;6.30;;;35.30;46.70;;;;;;4996225;28;20183;-58
2021/06/19 12:05:16;;;;;;;10.30;6.73;;;35.10;46.50;;;;;;4990524;28;20468;-56
2021/06/19 12:07:44;;;;;;;8.93;6.27;;;35.10;46.20;;;;;;4988766;28;20477;-56
2021/06/19 12:10:31;;;;;;;9.17;6.40;;;35.00;45.60;;;;;;4991209;28;20522;-56
2021/06/19 12:13:05;;;;;;;8.70;6.90;;;34.80;45.40;;;;;;4988718;28;20446;-58
2021/06/19 12:15:32;;;;;;;9.70;7.27;;;34.60;46.30;;;;;;4991983;28;20470;-56
2021/06/19 12:18:01;;;;;;;9.57;7.50;;;34.30;47.40;;;;;;4988881;28;20465;-56
2021/06/19 12:20:27;;;;;;;8.93;6.63;;;34.10;48.30;;;;;;4986221;28;20442;-56
2021/06/19 12:22:53;;;;;;;7.97;5.90;;;34.10;48.50;;;;;;4994633;28;20678;-56
2021/06/19 12:25:34;;;;;;;9.20;7.30;;;34.30;46.60;;;;;;4993820;28;20489;-56
2021/06/19 12:28:01;;;;;;;8.40;6.87;;;34.50;46.20;;;;;;4988245;28;21015;-58
2021/06/19 12:30:27;;;;;;;9.90;6.47;;;34.50;47.20;;;;;;5004397;28;20439;-56
2021/06/19 12:32:53;;;;;;;7.47;5.77;;;34.60;47.40;;;;;;4993671;28;20521;-58
2021/06/19 12:35:21;;;;;;;13.63;6.43;;;34.60;46.70;;;;;;4997819;28;20534;-58
2021/06/19 12:37:55;;;;;;;6.93;5.53;;;34.60;45.00;;;;;;5001667;28;20505;-58
2021/06/19 12:40:29;;;;;;;6.83;4.90;;;34.60;44.40;;;;;;4991125;28;21134;-58
2021/06/19 12:42:58;;;;;;;6.47;4.90;;;34.70;41.70;;;;;;5003922;28;20464;-57
2021/06/19 12:45:30;;;;;;;12.07;5.93;;;34.70;42.10;;;;;;5000258;28;20496;-58
2021/06/19 12:47:56;;;;;;;13.30;5.90;;;34.60;42.20;;;;;;4995312;28;20801;-58
2021/06/19 12:50:42;;;;;;;10.27;5.50;;;34.40;42.30;;;;;;4999358;28;20430;-57